Time;durP1;ratioP1;P1;durP2;ratioP2;P2;SDS_P1;SDS_P2;PMS_P1;PMS_P2;Temp;Humidity;BMP_temperature;BMP_pressure;BME280_temperature;BME280_humidity;BME280_pressure;Samples;Min_cycle;Max_cycle;Signal;HPM_P1;HPM_P2
2021/03/11 00:00:58;;;;;;;11.10;9.90;;;7.20;1.00;;;;;;5055160;28;20227;-82
2021/03/11 00:03:25;;;;;;;12.67;10.90;;;7.20;1.00;;;;;;5071875;28;20424;-82
2021/03/11 00:05:51;;;;;;;13.90;10.10;;;7.20;1.00;;;;;;5055208;28;20171;-82
2021/03/11 00:08:17;;;;;;;12.13;9.80;;;7.20;1.00;;;;;;5073210;28;20422;-82
2021/03/11 00:10:43;;;;;;;11.37;10.10;;;7.20;1.00;;;;;;5071656;28;20206;-82
2021/03/11 00:13:10;;;;;;;13.03;11.07;;;7.30;1.00;;;;;;5055095;28;20211;-82
2021/03/11 00:15:37;;;;;;;11.37;10.23;;;7.30;1.00;;;;;;5053851;28;21126;-83
2021/03/11 00:18:07;;;;;;;12.80;10.90;;;7.30;1.00;;;;;;5054954;28;20418;-82
2021/03/11 00:20:34;;;;;;;12.60;9.60;;;7.30;1.00;;;;;;5054795;28;20509;-82
2021/03/11 00:23:00;;;;;;;11.93;10.50;;;7.30;1.00;;;;;;5055560;28;20418;-82
2021/03/11 00:25:29;;;;;;;12.57;9.63;;;7.30;1.00;;;;;;5054750;28;20457;-82
2021/03/11 00:27:55;;;;;;;13.03;10.73;;;7.30;1.00;;;;;;5054493;28;20447;-82
2021/03/11 00:30:22;;;;;;;12.50;11.10;;;7.30;1.00;;;;;;5054950;28;20793;-82
2021/03/11 00:32:48;;;;;;;11.73;10.40;;;7.30;1.00;;;;;;5054544;28;20210;-82
2021/03/11 00:35:15;;;;;;;12.70;11.37;;;7.30;1.00;;;;;;5054616;28;20433;-82
2021/03/11 00:37:41;;;;;;;13.13;11.53;;;7.30;1.00;;;;;;5054539;28;20433;-82
2021/03/11 00:40:10;;;;;;;13.50;11.30;;;7.30;1.00;;;;;;5054354;28;20421;-82
2021/03/11 00:42:35;;;;;;;13.30;10.63;;;7.30;1.00;;;;;;5053629;28;20507;-82
2021/03/11 00:45:02;;;;;;;14.37;11.40;;;7.30;1.00;;;;;;5072434;28;20417;-82
2021/03/11 00:47:28;;;;;;;12.40;11.10;;;7.30;1.00;;;;;;5072412;28;20225;-82
2021/03/11 00:49:53;;;;;;;10.60;9.50;;;7.30;1.00;;;;;;5054398;28;20421;-82
2021/03/11 00:52:19;;;;;;;14.90;11.80;;;7.30;1.00;;;;;;5054367;28;20210;-83
2021/03/11 00:54:45;;;;;;;13.07;11.67;;;7.40;1.00;;;;;;5072224;28;20183;-82
2021/03/11 00:57:10;;;;;;;12.53;10.70;;;7.40;1.00;;;;;;5054124;28;20241;-82
2021/03/11 00:59:36;;;;;;;13.50;10.77;;;7.40;1.00;;;;;;5072057;28;20321;-82
2021/03/11 01:02:03;;;;;;;13.13;11.13;;;7.40;1.00;;;;;;5072114;28;20175;-82
2021/03/11 01:04:28;;;;;;;13.60;10.93;;;7.50;1.00;;;;;;5054175;28;20186;-82
2021/03/11 01:06:54;;;;;;;10.73;9.57;;;7.50;1.00;;;;;;5072183;28;20422;-82
2021/03/11 01:09:20;;;;;;;13.77;10.13;;;7.50;1.00;;;;;;5053877;28;20179;-82
2021/03/11 01:11:45;;;;;;;11.73;9.60;;;7.50;1.00;;;;;;5053722;28;20187;-82
2021/03/11 01:14:11;;;;;;;10.53;9.20;;;7.60;1.00;;;;;;5053845;28;20183;-82
2021/03/11 01:16:37;;;;;;;10.60;8.70;;;7.60;1.00;;;;;;5053723;28;20171;-82
2021/03/11 01:19:03;;;;;;;8.17;7.30;;;7.70;1.00;;;;;;5053707;28;20179;-83
2021/03/11 01:21:28;;;;;;;5.10;4.60;;;7.70;1.00;;;;;;5054081;28;20171;-82
2021/03/11 01:23:54;;;;;;;8.90;6.87;;;7.80;1.00;;;;;;5054150;28;20487;-82
2021/03/11 01:26:19;;;;;;;9.17;7.50;;;7.90;1.00;;;;;;5053748;28;20576;-82
2021/03/11 01:28:45;;;;;;;9.17;8.27;;;7.80;1.00;;;;;;5072008;28;20647;-82
2021/03/11 01:31:10;;;;;;;9.07;8.13;;;7.80;1.00;;;;;;5070760;28;20171;-82
2021/03/11 01:33:37;;;;;;;11.47;8.93;;;7.70;1.00;;;;;;5053894;28;20217;-82
2021/03/11 01:36:02;;;;;;;11.93;9.43;;;7.70;1.00;;;;;;5054148;28;20638;-82
2021/03/11 01:38:28;;;;;;;9.70;8.10;;;7.70;1.00;;;;;;5070849;28;20426;-82
2021/03/11 01:40:54;;;;;;;9.90;7.90;;;7.70;1.00;;;;;;5071969;28;20582;-82
2021/03/11 01:43:20;;;;;;;10.50;7.40;;;7.70;1.00;;;;;;5072057;28;20171;-82
2021/03/11 01:45:46;;;;;;;6.77;6.07;;;7.70;1.00;;;;;;5054207;28;20954;-82
2021/03/11 01:48:12;;;;;;;7.13;4.90;;;7.70;1.00;;;;;;5071218;28;20504;-82
2021/03/11 01:50:37;;;;;;;5.47;4.93;;;7.70;1.00;;;;;;5053924;28;20175;-82
2021/03/11 01:53:04;;;;;;;6.40;5.13;;;7.80;37.40;;;;;;5070700;28;20214;-82
2021/03/11 01:55:30;;;;;;;6.10;4.90;;;7.80;94.00;;;;;;5071991;28;20163;-82
2021/03/11 01:57:56;;;;;;;6.90;5.07;;;7.80;99.90;;;;;;5053950;28;20433;-82
2021/03/11 02:00:22;;;;;;;6.90;4.37;;;7.70;99.90;;;;;;5053927;28;20988;-82
2021/03/11 02:02:50;;;;;;;7.03;5.17;;;7.70;99.90;;;;;;5071927;28;20422;-82
2021/03/11 02:05:17;;;;;;;5.83;4.17;;;7.70;99.90;;;;;;5070772;28;20413;-82
2021/03/11 02:07:43;;;;;;;6.03;5.40;;;7.70;99.90;;;;;;5071947;28;20417;-82
2021/03/11 02:10:12;;;;;;;6.77;5.70;;;7.70;99.90;;;;;;5071872;28;20909;-82
2021/03/11 02:12:55;;;;;;;7.93;6.93;;;7.60;99.90;;;;;;5071808;28;20445;-82
2021/03/11 02:15:29;;;;;;;7.47;6.70;;;7.60;99.90;;;;;;5065333;28;20426;-83
2021/03/11 02:18:20;;;;;;;6.27;5.20;;;7.70;99.90;;;;;;5054244;28;21017;-82
2021/03/11 02:20:53;;;;;;;6.17;4.77;;;7.60;99.90;;;;;;5072042;28;20458;-83
2021/03/11 02:23:42;;;;;;;5.27;4.23;;;7.60;99.90;;;;;;5053810;28;20422;-82
2021/03/11 02:26:32;;;;;;;6.03;4.50;;;7.60;99.90;;;;;;5057507;28;20426;-82
2021/03/11 02:29:07;;;;;;;4.90;4.27;;;7.60;1.00;;;;;;5070417;28;20457;-82
2021/03/11 02:31:35;;;;;;;5.33;4.67;;;7.60;1.00;;;;;;5071727;28;20417;-82
2021/03/11 02:34:06;;;;;;;4.83;3.87;;;7.60;1.00;;;;;;5071645;28;20473;-82
2021/03/11 02:36:33;;;;;;;6.20;4.73;;;7.60;1.00;;;;;;5070429;28;20418;-82
2021/03/11 02:39:01;;;;;;;6.50;4.80;;;7.60;1.00;;;;;;5057211;28;20465;-82
2021/03/11 02:41:27;;;;;;;5.30;4.80;;;7.50;1.00;;;;;;5076301;28;20417;-82
2021/03/11 02:43:53;;;;;;;6.93;4.73;;;7.50;1.00;;;;;;5075519;28;20500;-82
2021/03/11 02:46:20;;;;;;;4.50;3.90;;;7.60;1.00;;;;;;5075175;28;20183;-82
2021/03/11 02:48:49;;;;;;;4.70;4.30;;;7.50;1.00;;;;;;5075159;28;20921;-82
2021/03/11 02:51:16;;;;;;;4.87;4.43;;;7.50;1.00;;;;;;5057388;28;20474;-82
2021/03/11 02:53:42;;;;;;;6.50;4.80;;;7.60;1.00;;;;;;5075316;28;20566;-82
2021/03/11 02:56:09;;;;;;;6.10;5.30;;;7.60;1.00;;;;;;5075425;28;20417;-82
2021/03/11 02:58:37;;;;;;;5.43;4.47;;;7.60;1.00;;;;;;5057164;28;20175;-82
2021/03/11 03:01:03;;;;;;;4.97;4.30;;;7.60;1.00;;;;;;5057095;28;20820;-82
2021/03/11 03:03:30;;;;;;;9.37;4.97;;;7.60;1.00;;;;;;5073563;28;20433;-82
2021/03/11 03:05:57;;;;;;;5.03;4.63;;;7.50;1.00;;;;;;5075243;28;20761;-82
2021/03/11 03:08:25;;;;;;;6.17;4.83;;;7.50;25.70;;;;;;5057147;28;20433;-82
2021/03/11 03:10:53;;;;;;;7.87;5.27;;;7.50;18.50;;;;;;5057151;28;20532;-82
2021/03/11 03:13:19;;;;;;;6.23;4.60;;;7.60;1.20;;;;;;5073752;28;20469;-82
2021/03/11 03:15:45;;;;;;;5.43;4.87;;;7.60;49.30;;;;;;5056951;28;20421;-82
2021/03/11 03:18:12;;;;;;;7.90;5.77;;;7.60;99.90;;;;;;5056942;28;20833;-82
2021/03/11 03:20:38;;;;;;;6.90;5.63;;;7.60;99.90;;;;;;5056792;28;20179;-82
2021/03/11 03:23:06;;;;;;;6.20;5.60;;;7.50;1.00;;;;;;5074837;28;20486;-82
2021/03/11 03:25:31;;;;;;;6.20;5.60;;;7.50;1.00;;;;;;5074784;28;20643;-82
2021/03/11 03:27:58;;;;;;;10.53;6.43;;;7.50;1.00;;;;;;5074758;28;20442;-82
2021/03/11 03:30:24;;;;;;;5.97;5.37;;;7.50;1.00;;;;;;5073265;28;20167;-82
2021/03/11 03:32:50;;;;;;;8.33;6.43;;;7.40;1.00;;;;;;5074457;28;20848;-82
2021/03/11 03:35:17;;;;;;;8.00;5.80;;;7.40;1.00;;;;;;5056281;28;20449;-82
2021/03/11 03:37:43;;;;;;;6.00;4.50;;;7.40;1.00;;;;;;5056749;28;20179;-81
2021/03/11 03:40:12;;;;;;;6.37;5.30;;;7.40;1.00;;;;;;5074490;28;20433;-82
2021/03/11 03:42:51;;;;;;;6.33;5.47;;;7.40;1.00;;;;;;5074389;28;20233;-82
2021/03/11 03:45:25;;;;;;;10.83;6.27;;;7.50;1.00;;;;;;5074447;28;20436;-80
2021/03/11 03:47:52;;;;;;;7.87;5.50;;;7.50;1.00;;;;;;5074407;28;20772;-80
2021/03/11 03:50:19;;;;;;;6.60;5.90;;;7.60;1.00;;;;;;5074193;28;20489;-80
2021/03/11 03:52:46;;;;;;;6.93;5.57;;;7.60;1.00;;;;;;5056370;28;20461;-79
2021/03/11 03:55:13;;;;;;;5.77;5.20;;;7.60;1.00;;;;;;5056057;28;20445;-82
2021/03/11 03:57:44;;;;;;;7.77;5.53;;;7.70;99.90;;;;;;5072932;28;20957;-82
2021/03/11 04:00:12;;;;;;;6.53;4.20;;;7.90;99.90;;;;;;5056107;28;20995;-82
2021/03/11 04:02:38;;;;;;;8.10;4.50;;;8.00;99.90;;;;;;5074067;28;20422;-82
2021/03/11 04:05:04;;;;;;;6.17;5.37;;;8.10;1.00;;;;;;5073737;28;20501;-83
2021/03/11 04:07:30;;;;;;;5.43;4.63;;;8.20;1.00;;;;;;5074224;28;20506;-82
2021/03/11 04:09:57;;;;;;;5.80;4.70;;;8.20;1.00;;;;;;5073806;28;20471;-82
2021/03/11 04:12:23;;;;;;;8.80;4.73;;;8.30;1.00;;;;;;5073901;28;20487;-82
2021/03/11 04:14:51;;;;;;;5.43;4.40;;;8.30;1.00;;;;;;5056853;28;20429;-82
2021/03/11 04:17:17;;;;;;;4.73;4.27;;;8.40;1.00;;;;;;5073601;28;20467;-82
2021/03/11 04:19:43;;;;;;;4.70;4.20;;;8.50;1.00;;;;;;5055654;28;20430;-82
2021/03/11 04:22:10;;;;;;;6.43;5.30;;;8.60;10.00;;;;;;5072205;28;20945;-82
2021/03/11 04:24:36;;;;;;;4.90;4.30;;;8.70;92.60;;;;;;5055643;28;20516;-82
2021/03/11 04:27:05;;;;;;;6.00;4.43;;;8.70;99.90;;;;;;5055892;28;20421;-82
2021/03/11 04:29:31;;;;;;;3.40;3.10;;;8.70;99.90;;;;;;5074555;28;20500;-82
2021/03/11 04:31:58;;;;;;;4.87;4.20;;;8.70;99.90;;;;;;5056344;28;20478;-82
2021/03/11 04:34:23;;;;;;;7.03;4.07;;;8.80;99.90;;;;;;5055648;28;20852;-83
2021/03/11 04:36:50;;;;;;;4.47;3.47;;;8.80;99.90;;;;;;5073626;28;20445;-83
2021/03/11 04:39:18;;;;;;;4.40;4.00;;;8.90;99.90;;;;;;5055636;28;20494;-82
2021/03/11 04:41:44;;;;;;;5.47;5.03;;;8.90;99.90;;;;;;5074368;28;20410;-82
2021/03/11 04:44:10;;;;;;;6.57;3.90;;;8.90;99.90;;;;;;5056305;28;20504;-82
2021/03/11 04:46:38;;;;;;;4.37;3.97;;;9.00;99.90;;;;;;5056435;28;21027;-82
2021/03/11 04:49:04;;;;;;;5.97;4.10;;;9.00;99.90;;;;;;5055234;28;20301;-82
2021/03/11 04:51:31;;;;;;;3.47;3.17;;;9.00;99.90;;;;;;5072994;28;20410;-81
2021/03/11 04:53:57;;;;;;;4.40;4.00;;;9.00;99.90;;;;;;5072436;28;20469;-82
2021/03/11 04:56:23;;;;;;;7.37;4.03;;;9.00;99.90;;;;;;5055166;28;20422;-82
2021/03/11 04:58:49;;;;;;;3.57;2.90;;;9.00;99.90;;;;;;5055005;28;20449;-82
2021/03/11 05:01:21;;;;;;;10.47;4.37;;;9.00;99.90;;;;;;5071131;28;20475;-81
2021/03/11 05:03:47;;;;;;;3.97;3.57;;;9.00;99.90;;;;;;5054861;28;20433;-82
2021/03/11 05:06:14;;;;;;;3.20;2.33;;;9.00;99.90;;;;;;5054925;28;20463;-82
2021/03/11 05:08:40;;;;;;;4.97;3.50;;;9.00;99.90;;;;;;5073635;28;20501;-81
2021/03/11 05:11:06;;;;;;;7.80;4.27;;;9.10;99.90;;;;;;5073546;28;20456;-82
2021/03/11 05:13:32;;;;;;;5.77;3.17;;;9.10;99.90;;;;;;5054781;28;20521;-82
2021/03/11 05:15:58;;;;;;;4.13;2.20;;;9.10;99.90;;;;;;5054555;28;20186;-82
2021/03/11 05:18:24;;;;;;;3.57;3.27;;;9.00;99.90;;;;;;5057013;28;20183;-83
2021/03/11 05:20:50;;;;;;;5.33;3.63;;;9.00;99.90;;;;;;5055612;28;20467;-84
2021/03/11 05:23:17;;;;;;;5.47;4.47;;;8.90;1.00;;;;;;5072563;28;20445;-83
2021/03/11 05:25:43;;;;;;;4.27;3.77;;;8.90;1.00;;;;;;5056082;28;20405;-82
2021/03/11 05:28:08;;;;;;;2.80;2.53;;;8.90;1.00;;;;;;5072594;28;20414;-82
2021/03/11 05:30:34;;;;;;;3.07;2.80;;;9.00;19.80;;;;;;5072663;28;20173;-79
2021/03/11 05:32:59;;;;;;;8.60;4.83;;;8.90;99.90;;;;;;5072828;28;20206;-82
2021/03/11 05:35:26;;;;;;;6.40;3.67;;;8.80;99.90;;;;;;5054903;28;20175;-81
2021/03/11 05:37:52;;;;;;;4.33;3.70;;;8.80;99.90;;;;;;5071211;28;20695;-82
2021/03/11 05:40:18;;;;;;;6.07;3.40;;;8.80;1.00;;;;;;5056051;28;20414;-82
2021/03/11 05:42:47;;;;;;;3.73;3.30;;;8.80;5.70;;;;;;5048886;28;20207;-82
2021/03/11 05:45:13;;;;;;;3.23;2.97;;;8.80;99.90;;;;;;5071702;28;20512;-82
2021/03/11 05:47:43;;;;;;;5.80;3.23;;;8.90;99.90;;;;;;5053759;28;20992;-82
2021/03/11 05:50:10;;;;;;;5.90;4.20;;;8.80;99.90;;;;;;5053606;28;20179;-82
2021/03/11 05:52:36;;;;;;;3.83;3.53;;;8.80;99.90;;;;;;5053160;28;21047;-80
2021/03/11 05:55:06;;;;;;;5.47;2.93;;;8.90;1.00;;;;;;5061758;28;20819;-82
2021/03/11 05:57:32;;;;;;;4.77;3.37;;;8.90;1.00;;;;;;5063397;28;20459;-82
2021/03/11 05:59:59;;;;;;;2.10;1.90;;;8.90;1.00;;;;;;5070500;28;20457;-82
2021/03/11 06:02:25;;;;;;;3.33;3.10;;;9.00;99.90;;;;;;5053484;28;20171;-82
2021/03/11 06:04:55;;;;;;;3.33;2.50;;;9.00;99.90;;;;;;5071349;28;20766;-82
2021/03/11 06:07:24;;;;;;;4.60;3.90;;;9.00;99.90;;;;;;5053222;28;20441;-82
2021/03/11 06:09:56;;;;;;;2.20;2.00;;;9.00;99.90;;;;;;5055566;28;20464;-82
2021/03/11 06:12:23;;;;;;;4.93;3.10;;;9.00;99.90;;;;;;5075102;28;20459;-82
2021/03/11 06:14:54;;;;;;;3.13;2.93;;;9.10;99.90;;;;;;5057392;28;20429;-82
2021/03/11 06:17:21;;;;;;;3.40;3.20;;;9.10;99.90;;;;;;5057275;28;20422;-82
2021/03/11 06:19:47;;;;;;;3.47;2.63;;;9.10;99.90;;;;;;5058078;28;20950;-84
2021/03/11 06:22:12;;;;;;;2.97;2.43;;;9.10;99.90;;;;;;5057350;28;20421;-83
2021/03/11 06:24:38;;;;;;;4.13;2.63;;;9.10;99.90;;;;;;5075343;28;20186;-81
2021/03/11 06:27:04;;;;;;;2.60;2.40;;;9.10;99.90;;;;;;5076061;28;20266;-82
2021/03/11 06:29:40;;;;;;;3.07;2.27;;;9.20;99.90;;;;;;5074635;28;20210;-82
2021/03/11 06:32:10;;;;;;;4.60;2.93;;;9.20;99.90;;;;;;5056770;28;20428;-83
2021/03/11 06:34:39;;;;;;;4.13;2.70;;;9.20;99.90;;;;;;5074722;28;20433;-82
2021/03/11 06:37:05;;;;;;;3.37;3.13;;;9.20;23.60;;;;;;5056682;28;20410;-82
2021/03/11 06:39:34;;;;;;;4.90;4.03;;;9.20;9.50;;;;;;5057946;28;20427;-83
2021/03/11 06:42:00;;;;;;;8.10;3.27;;;9.30;1.00;;;;;;5075324;28;20428;-82
2021/03/11 06:44:41;;;;;;;13.77;4.57;;;9.30;1.00;;;;;;5056339;28;20429;-82
2021/03/11 06:47:15;;;;;;;3.57;3.10;;;9.40;99.90;;;;;;5056333;28;20432;-81
2021/03/11 06:50:02;;;;;;;6.13;3.17;;;9.50;99.90;;;;;;5058604;28;20429;-82
2021/03/11 06:52:28;;;;;;;3.30;3.00;;;9.50;99.90;;;;;;5074713;28;21139;-83
2021/03/11 06:55:00;;;;;;;3.13;2.57;;;9.50;99.90;;;;;;5074314;28;20424;-81
2021/03/11 06:57:33;;;;;;;8.67;4.10;;;9.60;26.10;;;;;;5057683;28;20999;-81
2021/03/11 07:00:18;;;;;;;5.13;2.87;;;9.60;25.30;;;;;;5077600;28;20587;-81
2021/03/11 07:02:53;;;;;;;3.07;2.57;;;9.60;1.00;;;;;;5056911;28;20421;-82
2021/03/11 07:05:29;;;;;;;4.30;3.03;;;9.70;1.00;;;;;;5074055;28;20405;-82
2021/03/11 07:08:06;;;;;;;2.60;2.40;;;9.70;1.00;;;;;;5074541;28;20424;-81
2021/03/11 07:10:32;;;;;;;3.00;2.03;;;9.80;1.00;;;;;;5056043;28;20424;-82
2021/03/11 07:12:59;;;;;;;5.40;2.87;;;9.80;1.00;;;;;;5059434;28;20828;-82
2021/03/11 07:15:27;;;;;;;3.43;1.93;;;9.80;1.00;;;;;;5056638;28;20627;-80
2021/03/11 07:17:53;;;;;;;5.43;2.97;;;9.90;1.00;;;;;;5055614;28;20848;-80
2021/03/11 07:20:20;;;;;;;2.43;2.10;;;10.00;1.00;;;;;;5074107;28;20409;-81
2021/03/11 07:23:14;;;;;;;2.63;2.27;;;10.00;1.00;;;;;;5055277;28;20925;-82
2021/03/11 07:25:45;;;;;;;3.43;2.50;;;10.00;1.00;;;;;;5058728;28;20418;-81
2021/03/11 07:28:25;;;;;;;3.03;2.67;;;10.00;1.00;;;;;;5057437;28;20417;-82
2021/03/11 07:31:02;;;;;;;2.40;2.20;;;10.10;1.00;;;;;;5075015;28;20796;-86
2021/03/11 07:33:30;;;;;;;5.40;2.70;;;10.10;1.00;;;;;;5056122;28;20477;-82
2021/03/11 07:35:58;;;;;;;3.27;2.67;;;10.20;1.00;;;;;;5074079;28;20425;-83
2021/03/11 07:38:26;;;;;;;19.53;4.57;;;10.20;1.00;;;;;;5055660;28;20440;-82
2021/03/11 07:40:53;;;;;;;5.40;2.77;;;10.30;1.00;;;;;;5073592;28;20426;-82
2021/03/11 07:43:20;;;;;;;3.33;1.87;;;10.50;99.90;;;;;;5055509;28;20441;-82
2021/03/11 07:45:46;;;;;;;4.20;2.30;;;10.50;99.90;;;;;;5073772;28;20412;-84
2021/03/11 07:48:13;;;;;;;2.77;2.47;;;10.50;99.90;;;;;;5055308;28;20426;-81
2021/03/11 07:50:39;;;;;;;2.07;1.87;;;10.50;99.90;;;;;;5073119;28;20413;-81
2021/03/11 07:53:06;;;;;;;2.40;2.20;;;10.50;99.90;;;;;;5056472;28;20469;-82
2021/03/11 07:55:32;;;;;;;5.03;3.00;;;10.60;99.90;;;;;;5074468;28;20422;-82
2021/03/11 07:58:02;;;;;;;3.83;2.00;;;10.60;99.90;;;;;;5055718;28;20528;-82
2021/03/11 08:00:29;;;;;;;7.07;2.90;;;10.80;99.90;;;;;;5055524;28;20548;-82
2021/03/11 08:03:09;;;;;;;2.57;1.53;;;10.80;99.90;;;;;;5056084;28;20421;-81
2021/03/11 08:05:35;;;;;;;6.10;2.17;;;10.90;99.90;;;;;;5074942;28;20418;-82
2021/03/11 08:08:11;;;;;;;1.80;1.70;;;10.90;99.90;;;;;;5055601;28;20422;-82
2021/03/11 08:10:41;;;;;;;2.00;1.90;;;11.00;99.90;;;;;;5056086;28;20175;-82
2021/03/11 08:13:34;;;;;;;4.40;1.43;;;11.20;5.10;;;;;;5056365;28;20501;-83
2021/03/11 08:16:13;;;;;;;3.17;2.20;;;11.40;1.00;;;;;;5073973;28;20457;-82
2021/03/11 08:18:46;;;;;;;1.07;1.00;;;11.40;1.00;;;;;;5074057;28;20413;-82
2021/03/11 08:21:24;;;;;;;13.50;2.03;;;11.50;1.00;;;;;;5074884;28;20422;-82
2021/03/11 08:23:51;;;;;;;2.40;2.20;;;11.30;1.00;;;;;;5073870;28;20416;-83
2021/03/11 08:26:38;;;;;;;1.97;1.60;;;11.30;1.00;;;;;;5055379;28;20413;-83
2021/03/11 08:29:30;;;;;;;2.47;1.90;;;11.50;1.00;;;;;;5073678;28;20414;-82
2021/03/11 08:31:55;;;;;;;1.27;1.17;;;11.60;1.00;;;;;;5052512;28;20413;-82
2021/03/11 08:34:33;;;;;;;1.77;1.67;;;11.60;1.00;;;;;;5073141;28;20480;-81
2021/03/11 08:37:19;;;;;;;1.63;1.53;;;11.50;1.00;;;;;;5072969;28;20665;-81
2021/03/11 08:39:45;;;;;;;3.07;1.83;;;11.60;1.00;;;;;;5072897;28;20416;-82
2021/03/11 08:42:45;;;;;;;2.40;1.90;;;11.60;1.00;;;;;;5055261;28;20472;-81
2021/03/11 08:45:11;;;;;;;3.20;1.57;;;11.60;1.00;;;;;;5072914;28;20467;-82
2021/03/11 08:48:15;;;;;;;2.40;2.20;;;11.80;99.90;;;;;;5055111;28;20421;-82
2021/03/11 08:50:42;;;;;;;3.83;1.80;;;11.80;99.90;;;;;;5054974;28;20471;-82
2021/03/11 08:53:08;;;;;;;6.50;2.33;;;11.90;99.90;;;;;;5073415;28;20480;-82
2021/03/11 08:55:36;;;;;;;7.07;2.10;;;11.90;99.90;;;;;;5077126;28;20422;-82
2021/03/11 08:58:03;;;;;;;1.53;1.40;;;11.80;99.90;;;;;;5075034;28;20408;-82
2021/03/11 09:01:04;;;;;;;1.60;1.50;;;11.60;1.00;;;;;;5073069;28;20468;-83
2021/03/11 09:03:43;;;;;;;11.27;2.07;;;11.50;1.00;;;;;;5056266;28;20418;-82
2021/03/11 09:06:10;;;;;;;1.83;1.40;;;11.60;1.00;;;;;;5073226;28;20414;-81
2021/03/11 09:08:55;;;;;;;2.77;1.57;;;11.60;1.00;;;;;;5074839;28;20434;-82
2021/03/11 09:11:25;;;;;;;6.60;3.30;;;11.50;1.00;;;;;;5055240;28;20762;-81
2021/03/11 09:13:53;;;;;;;2.07;1.80;;;11.50;40.60;;;;;;5072414;28;20468;-82
2021/03/11 09:16:27;;;;;;;1.50;1.40;;;11.60;98.40;;;;;;5072103;28;20445;-81
2021/03/11 09:18:57;;;;;;;1.80;1.70;;;11.70;1.00;;;;;;5073192;28;20562;-79
2021/03/11 09:21:36;;;;;;;1.77;1.67;;;11.60;1.00;;;;;;5068389;28;20417;-81
2021/03/11 09:24:03;;;;;;;1.80;1.70;;;11.60;99.90;;;;;;5054013;28;20425;-81
2021/03/11 09:26:30;;;;;;;1.43;1.33;;;11.50;99.90;;;;;;5071606;28;20478;-82
2021/03/11 09:28:57;;;;;;;2.10;1.77;;;11.40;99.90;;;;;;5071529;28;20921;-81
2021/03/11 09:31:27;;;;;;;3.50;1.80;;;11.40;99.90;;;;;;5071695;28;20443;-81
2021/03/11 09:33:55;;;;;;;3.30;1.30;;;11.50;99.90;;;;;;5072277;28;20475;-81
2021/03/11 09:36:21;;;;;;;2.90;1.70;;;11.50;99.90;;;;;;5053572;28;20921;-81
2021/03/11 09:38:48;;;;;;;3.57;1.90;;;11.60;99.90;;;;;;5054041;28;20475;-83
2021/03/11 09:41:15;;;;;;;1.70;1.37;;;11.70;99.90;;;;;;5054062;28;20948;-82
2021/03/11 09:43:42;;;;;;;12.13;2.53;;;11.80;99.90;;;;;;5072421;28;20429;-81
2021/03/11 09:46:11;;;;;;;2.80;1.80;;;11.70;99.90;;;;;;5044270;28;20425;-81
2021/03/11 09:48:44;;;;;;;4.10;1.63;;;11.80;99.90;;;;;;5068819;28;20430;-81
2021/03/11 09:51:18;;;;;;;3.83;2.03;;;11.80;99.90;;;;;;5070737;28;20448;-81
2021/03/11 09:53:50;;;;;;;1.10;1.00;;;11.90;99.90;;;;;;5070143;28;20472;-81
2021/03/11 09:56:18;;;;;;;1.23;1.13;;;12.00;70.20;;;;;;5070235;28;20432;-83
2021/03/11 09:58:58;;;;;;;1.97;1.17;;;12.00;4.70;;;;;;5071091;28;20436;-83
2021/03/11 10:01:39;;;;;;;0.70;0.70;;;12.10;20.00;;;;;;5059025;28;20433;-81
2021/03/11 10:04:24;;;;;;;1.23;1.13;;;12.20;1.00;;;;;;5071002;28;20431;-81
2021/03/11 10:06:58;;;;;;;1.20;1.10;;;12.40;1.00;;;;;;5033131;28;20417;-80
2021/03/11 10:09:25;;;;;;;1.33;1.07;;;12.40;1.00;;;;;;5033404;28;20439;-82
2021/03/11 10:11:54;;;;;;;2.10;1.50;;;12.50;1.00;;;;;;5033297;28;20487;-82
2021/03/11 10:14:22;;;;;;;1.73;1.63;;;12.60;1.00;;;;;;5050526;28;20881;-81
2021/03/11 10:16:50;;;;;;;5.93;1.27;;;12.70;1.00;;;;;;5050447;28;20418;-82
2021/03/11 10:19:17;;;;;;;1.17;0.80;;;12.70;1.00;;;;;;5050497;28;20418;-81
2021/03/11 10:21:51;;;;;;;1.10;1.00;;;12.60;1.00;;;;;;5053682;28;20415;-82
2021/03/11 10:24:29;;;;;;;2.57;1.33;;;12.60;1.00;;;;;;5042877;28;20811;-77
2021/03/11 10:26:55;;;;;;;3.07;0.97;;;12.60;1.00;;;;;;5070737;28;20486;-80
2021/03/11 10:29:22;;;;;;;5.73;0.90;;;12.60;1.00;;;;;;5069030;28;20425;-82
2021/03/11 10:31:48;;;;;;;3.90;1.40;;;12.60;1.00;;;;;;5068438;28;20501;-82
2021/03/11 10:34:13;;;;;;;3.03;1.20;;;12.70;1.00;;;;;;5074168;28;20509;-83
2021/03/11 10:36:39;;;;;;;1.00;1.00;;;12.80;15.10;;;;;;5070270;28;20258;-81
2021/03/11 10:39:09;;;;;;;2.50;1.30;;;12.80;45.20;;;;;;5070263;28;20191;-82
2021/03/11 10:41:37;;;;;;;0.83;0.83;;;12.90;51.70;;;;;;5070397;28;20237;-82
2021/03/11 10:44:09;;;;;;;3.63;1.20;;;12.90;99.90;;;;;;5071341;28;20939;-81
2021/03/11 10:46:35;;;;;;;1.50;0.83;;;13.10;99.90;;;;;;5069906;28;20417;-82
2021/03/11 10:49:01;;;;;;;1.10;1.10;;;13.00;99.90;;;;;;5070289;28;20421;-82
2021/03/11 10:51:30;;;;;;;1.10;0.83;;;12.90;1.00;;;;;;5069969;28;20187;-82
2021/03/11 10:53:58;;;;;;;7.50;1.60;;;12.80;99.90;;;;;;5069146;28;20245;-82
2021/03/11 10:56:24;;;;;;;3.73;1.87;;;12.80;99.90;;;;;;5070417;28;20425;-82
2021/03/11 10:59:03;;;;;;;4.37;1.90;;;12.70;99.90;;;;;;5054281;28;20782;-81
2021/03/11 11:01:29;;;;;;;2.40;1.43;;;12.60;1.00;;;;;;5057232;28;20273;-82
2021/03/11 11:03:56;;;;;;;3.53;1.33;;;12.60;1.00;;;;;;5074484;28;20414;-81
2021/03/11 11:06:23;;;;;;;4.37;1.43;;;12.50;1.00;;;;;;5075464;28;20426;-82
2021/03/11 11:08:49;;;;;;;0.57;0.57;;;12.50;1.00;;;;;;5056801;28;20508;-82
2021/03/11 11:11:17;;;;;;;0.60;0.60;;;12.40;30.50;;;;;;5074453;28;20799;-84
2021/03/11 11:13:43;;;;;;;1.00;0.90;;;12.40;35.90;;;;;;5057960;28;20480;-82
2021/03/11 11:16:10;;;;;;;0.30;0.30;;;12.40;61.30;;;;;;5056476;28;20414;-81
2021/03/11 11:18:35;;;;;;;1.47;0.70;;;12.40;78.20;;;;;;5074343;28;20425;-81
2021/03/11 11:21:02;;;;;;;0.73;0.60;;;12.20;93.00;;;;;;5056783;28;20419;-81
2021/03/11 11:23:27;;;;;;;1.20;0.53;;;12.20;99.90;;;;;;5057385;28;20201;-81
2021/03/11 11:25:54;;;;;;;0.50;0.50;;;12.10;99.90;;;;;;5077515;28;20782;-81
2021/03/11 11:28:19;;;;;;;0.40;0.37;;;12.00;99.90;;;;;;5074845;28;20182;-81
2021/03/11 11:30:45;;;;;;;1.33;0.50;;;11.80;99.90;;;;;;5058105;28;20433;-81
2021/03/11 11:33:11;;;;;;;0.73;0.50;;;11.70;99.90;;;;;;5056179;28;20221;-81
2021/03/11 11:35:36;;;;;;;0.83;0.83;;;11.70;99.90;;;;;;5056181;28;20241;-81
2021/03/11 11:38:03;;;;;;;2.13;0.70;;;11.60;99.90;;;;;;5074940;28;20665;-81
2021/03/11 11:40:30;;;;;;;0.30;0.30;;;11.60;99.90;;;;;;5073912;28;20183;-81
2021/03/11 11:42:56;;;;;;;1.73;1.20;;;11.60;99.90;;;;;;5056264;28;20417;-80
2021/03/11 11:45:22;;;;;;;0.70;0.70;;;11.60;99.90;;;;;;5074073;28;20890;-81
2021/03/11 11:47:48;;;;;;;1.87;1.20;;;11.60;99.90;;;;;;5055840;28;20535;-82
2021/03/11 11:50:13;;;;;;;0.83;0.70;;;11.70;99.90;;;;;;5073682;28;20428;-81
2021/03/11 11:52:40;;;;;;;0.80;0.80;;;11.60;99.90;;;;;;5073514;28;20210;-79
2021/03/11 11:55:09;;;;;;;0.80;0.63;;;11.70;99.90;;;;;;5055477;28;20222;-81
2021/03/11 11:57:35;;;;;;;0.50;0.40;;;11.80;99.90;;;;;;5056183;28;20453;-81
2021/03/11 12:00:01;;;;;;;1.20;1.07;;;11.80;99.90;;;;;;5055653;28;20509;-82
2021/03/11 12:02:27;;;;;;;0.40;0.40;;;11.80;99.90;;;;;;5056710;28;20190;-81
2021/03/11 12:04:54;;;;;;;2.20;0.60;;;11.90;99.90;;;;;;5055620;28;20182;-82
2021/03/11 12:07:20;;;;;;;0.90;0.80;;;12.00;99.90;;;;;;5059732;28;20260;-81
2021/03/11 12:09:45;;;;;;;1.17;1.10;;;12.00;99.90;;;;;;5055531;28;20438;-81
2021/03/11 12:12:12;;;;;;;0.73;0.73;;;12.00;99.90;;;;;;5055767;28;20409;-81
2021/03/11 12:14:38;;;;;;;0.60;0.60;;;12.00;99.90;;;;;;5054956;28;20178;-82
2021/03/11 12:17:03;;;;;;;0.50;0.37;;;11.90;99.90;;;;;;5073778;28;20429;-81
2021/03/11 12:19:29;;;;;;;0.87;0.83;;;11.80;99.90;;;;;;5055226;28;20179;-82
2021/03/11 12:21:55;;;;;;;0.50;0.50;;;12.00;99.90;;;;;;5073446;28;20178;-81
2021/03/11 12:24:20;;;;;;;0.50;0.50;;;12.20;99.90;;;;;;5055029;28;20168;-81
2021/03/11 12:26:48;;;;;;;1.23;0.77;;;12.20;99.90;;;;;;5055965;28;20660;-80
2021/03/11 12:29:14;;;;;;;1.90;1.00;;;12.40;99.90;;;;;;5073524;28;20205;-82
2021/03/11 12:31:42;;;;;;;0.30;0.30;;;12.50;99.90;;;;;;5054981;28;20808;-80
2021/03/11 12:34:07;;;;;;;1.53;0.90;;;12.50;99.90;;;;;;5054485;28;20799;-81
2021/03/11 12:36:33;;;;;;;0.70;0.50;;;12.80;99.90;;;;;;5054628;28;20417;-81
2021/03/11 12:38:58;;;;;;;0.63;0.63;;;12.90;99.90;;;;;;5054798;28;20190;-80
2021/03/11 12:41:25;;;;;;;0.60;0.50;;;13.10;99.90;;;;;;5054585;28;20194;-81
2021/03/11 12:43:51;;;;;;;0.70;0.50;;;13.00;99.90;;;;;;5054097;28;20258;-82
2021/03/11 12:46:17;;;;;;;1.10;0.50;;;13.00;99.90;;;;;;5054708;28;20410;-82
2021/03/11 12:48:42;;;;;;;0.67;0.60;;;13.00;99.90;;;;;;5073420;28;20437;-83
2021/03/11 12:51:08;;;;;;;0.70;0.50;;;13.10;99.90;;;;;;5054797;28;20168;-83
2021/03/11 12:53:34;;;;;;;0.70;0.70;;;12.90;99.90;;;;;;5054906;28;20256;-82
2021/03/11 12:55:59;;;;;;;0.60;0.60;;;12.90;99.90;;;;;;5072874;28;20594;-83
2021/03/11 12:58:25;;;;;;;1.23;1.13;;;12.90;99.90;;;;;;5072874;28;20271;-85
2021/03/11 13:00:51;;;;;;;0.70;0.70;;;13.00;99.90;;;;;;5055063;28;20313;-82
2021/03/11 13:03:17;;;;;;;1.33;0.63;;;13.20;99.90;;;;;;5055121;28;20269;-83